Terminal Aerodrome Forecast
Issued by NWS Melbourne, FL

Home | Current Version | Previous Version | Text Only | Print | Product List | Glossary On
Versions: 1 2 3 4 5 6 7 8 9 10 11 12 13 14 15 16 17
000
FTUS42 KMLB 191135
TAFVRB
TAF
KVRB 191135Z 1912/2012 28003KT P6SM SCT250
     FM191900 11008KT P6SM VCTS SCT040CB BKN250
     FM200200 20005KT P6SM FEW040 BKN250
     FM200900 19004KT P6SM SCT020 BKN100=

USA.gov is the U.S. government's official web portal to all federal, state and local government web resources and services.